createdAt,value
2022-12-04T00:01:04.049Z,22.25
2022-12-04T00:03:31.114Z,22.26
2022-12-04T00:06:01.003Z,22.27
2022-12-04T00:08:27.841Z,22.27
2022-12-04T00:10:55.020Z,22.27
2022-12-04T00:13:21.845Z,22.28
2022-12-04T00:15:48.856Z,22.28
2022-12-04T00:18:15.669Z,22.27
2022-12-04T00:20:42.536Z,22.25
2022-12-04T00:23:09.378Z,22.24
2022-12-04T00:25:40.946Z,22.21
2022-12-04T00:28:08.280Z,22.18
2022-12-04T00:30:35.118Z,22.13
2022-12-04T00:33:02.066Z,22.10
2022-12-04T00:35:28.958Z,22.04
2022-12-04T00:37:55.787Z,22.03
2022-12-04T00:40:22.613Z,21.98
2022-12-04T00:42:49.415Z,21.94
2022-12-04T00:45:16.420Z,21.91
2022-12-04T00:47:43.287Z,21.86
2022-12-04T00:50:10.564Z,21.85
2022-12-04T00:52:37.440Z,21.83
2022-12-04T00:55:04.592Z,21.80
2022-12-04T00:57:31.491Z,21.81
2022-12-04T00:59:58.373Z,21.78
2022-12-04T01:02:25.198Z,21.77
2022-12-04T01:04:51.988Z,21.74
2022-12-04T01:07:18.939Z,21.72
2022-12-04T01:09:45.754Z,21.69
2022-12-04T01:12:16.266Z,21.71
2022-12-04T01:14:47.332Z,21.65
2022-12-04T01:17:14.451Z,21.63
2022-12-04T01:19:41.874Z,21.65
2022-12-04T01:22:08.733Z,21.62
2022-12-04T01:24:35.572Z,21.60
2022-12-04T01:27:02.525Z,21.55
2022-12-04T01:29:29.352Z,21.53
2022-12-04T01:31:56.380Z,21.51
2022-12-04T01:34:25.573Z,21.50
2022-12-04T01:36:52.576Z,21.49
2022-12-04T01:39:19.496Z,21.45
2022-12-04T01:41:46.458Z,21.41
2022-12-04T01:44:13.776Z,21.41
2022-12-04T01:46:41.357Z,21.37
2022-12-04T01:49:10.918Z,21.32
2022-12-04T01:51:39.944Z,21.31
2022-12-04T01:54:09.520Z,21.30
2022-12-04T01:56:39.303Z,21.27
2022-12-04T01:59:07.545Z,21.23
2022-12-04T02:01:38.696Z,21.22
2022-12-04T02:04:06.095Z,21.17
2022-12-04T02:06:32.911Z,21.17
2022-12-04T02:08:59.901Z,21.10
2022-12-04T02:11:33.341Z,21.10
2022-12-04T02:14:03.340Z,21.06
2022-12-04T02:16:36.860Z,21.03
2022-12-04T02:19:06.902Z,20.99
2022-12-04T02:21:37.642Z,21.00
2022-12-04T02:24:05.820Z,20.98
2022-12-04T02:26:32.909Z,20.94
2022-12-04T02:29:00.014Z,20.94
2022-12-04T02:31:31.831Z,20.91
2022-12-04T02:34:01.115Z,20.88
2022-12-04T02:36:29.780Z,20.85
2022-12-04T02:38:59.722Z,20.83
2022-12-04T02:41:29.920Z,20.80
2022-12-04T02:43:58.938Z,20.79
2022-12-04T02:46:28.963Z,20.77
2022-12-04T02:48:58.297Z,20.74
2022-12-04T02:51:27.626Z,20.73
2022-12-04T02:53:57.499Z,20.69
2022-12-04T02:56:27.394Z,20.68
2022-12-04T02:58:57.332Z,20.66
2022-12-04T03:01:28.476Z,20.64
2022-12-04T03:03:59.451Z,20.62
2022-12-04T03:06:28.626Z,20.59
2022-12-04T03:08:59.837Z,20.60
2022-12-04T03:11:29.490Z,20.57
2022-12-04T03:14:00.317Z,20.55
2022-12-04T03:16:30.170Z,20.53
2022-12-04T03:19:00.045Z,20.52
2022-12-04T03:21:31.380Z,20.50
2022-12-04T03:24:02.593Z,20.47
2022-12-04T03:26:35.626Z,20.44
2022-12-04T03:29:10.165Z,20.45
2022-12-04T03:31:39.978Z,20.41
2022-12-04T03:34:08.033Z,20.41
2022-12-04T03:36:37.878Z,20.41
2022-12-04T03:39:07.726Z,20.38
2022-12-04T03:41:45.156Z,20.37
2022-12-04T03:44:18.113Z,20.36
2022-12-04T03:46:48.024Z,20.34
2022-12-04T03:49:20.038Z,20.31
2022-12-04T03:51:51.221Z,20.29
2022-12-04T03:54:21.518Z,20.26
2022-12-04T03:56:53.454Z,20.25
2022-12-04T03:59:23.484Z,20.22
2022-12-04T04:01:51.604Z,20.21
2022-12-04T04:04:22.061Z,20.19
2022-12-04T04:06:51.897Z,20.18
2022-12-04T04:09:21.887Z,20.16
2022-12-04T04:11:53.298Z,20.14
2022-12-04T04:14:26.249Z,20.12
2022-12-04T04:17:00.816Z,20.09
2022-12-04T04:19:33.381Z,20.09
2022-12-04T04:22:04.940Z,20.10
2022-12-04T04:24:36.544Z,20.05
2022-12-04T04:27:03.732Z,20.03
2022-12-04T04:29:30.594Z,20.02
2022-12-04T04:32:00.471Z,20.00
2022-12-04T04:34:30.410Z,19.98
2022-12-04T04:37:00.915Z,19.96
2022-12-04T04:39:29.106Z,19.97
2022-12-04T04:41:59.247Z,19.95
2022-12-04T04:44:28.813Z,19.92
2022-12-04T04:46:58.632Z,19.92
2022-12-04T04:49:28.570Z,19.88
2022-12-04T04:51:55.617Z,19.88
2022-12-04T04:54:23.097Z,19.86
2022-12-04T04:56:49.966Z,19.84
2022-12-04T04:59:16.805Z,19.81
2022-12-04T05:01:44.877Z,19.82
2022-12-04T05:04:11.795Z,19.81
2022-12-04T05:06:38.607Z,19.78
2022-12-04T05:09:05.814Z,19.78
2022-12-04T05:11:32.706Z,19.76
2022-12-04T05:13:59.495Z,19.75
2022-12-04T05:16:26.374Z,19.74
2022-12-04T05:18:56.456Z,19.73
2022-12-04T05:21:23.350Z,19.71
2022-12-04T05:23:51.419Z,19.70
2022-12-04T05:26:18.211Z,19.69
2022-12-04T05:28:45.111Z,19.67
2022-12-04T05:31:12.016Z,19.66
2022-12-04T05:33:38.898Z,19.64
2022-12-04T05:36:07.095Z,19.64
2022-12-04T05:38:34.352Z,19.61
2022-12-04T05:41:02.297Z,19.60
2022-12-04T05:43:29.326Z,19.61
2022-12-04T05:45:56.152Z,19.60
2022-12-04T05:48:22.932Z,19.59
2022-12-04T05:50:49.688Z,19.55
2022-12-04T05:53:16.528Z,19.51
2022-12-04T05:55:43.318Z,19.52
2022-12-04T05:58:10.149Z,19.50
2022-12-04T06:00:37.357Z,19.53
2022-12-04T06:03:04.361Z,19.51
2022-12-04T06:05:32.669Z,19.49
2022-12-04T06:07:59.564Z,19.46
2022-12-04T06:10:26.502Z,19.46
2022-12-04T06:12:57.890Z,19.44
2022-12-04T06:15:24.744Z,19.43
2022-12-04T06:17:51.831Z,19.41
2022-12-04T06:20:19.377Z,19.39
2022-12-04T06:22:46.334Z,19.41
2022-12-04T06:25:13.149Z,19.38
2022-12-04T06:27:40.124Z,19.38
2022-12-04T06:30:07.449Z,19.36
2022-12-04T06:32:34.267Z,19.37
2022-12-04T06:35:02.069Z,19.35
2022-12-04T06:37:28.883Z,19.34
2022-12-04T06:39:55.948Z,19.32
2022-12-04T06:42:23.127Z,19.30
2022-12-04T06:44:49.950Z,19.29
2022-12-04T06:47:16.810Z,19.28
2022-12-04T06:49:43.654Z,19.30
2022-12-04T06:52:10.520Z,19.32
2022-12-04T06:54:37.311Z,19.36
2022-12-04T06:57:04.291Z,19.45
2022-12-04T06:59:31.236Z,19.50
2022-12-04T07:01:58.082Z,19.59
2022-12-04T07:04:25.033Z,19.64
2022-12-04T07:06:52.451Z,19.68
2022-12-04T07:09:20.769Z,19.71
2022-12-04T07:11:48.456Z,19.77
2022-12-04T07:14:15.501Z,19.80
2022-12-04T07:16:42.893Z,19.83
2022-12-04T07:19:11.137Z,19.87
2022-12-04T07:21:40.457Z,19.91
2022-12-04T07:24:07.372Z,19.95
2022-12-04T07:26:34.270Z,19.99
2022-12-04T07:29:01.432Z,20.04
2022-12-04T07:31:29.154Z,20.09
2022-12-04T07:33:56.516Z,20.14
2022-12-04T07:36:23.792Z,20.19
2022-12-04T07:38:50.648Z,20.23
2022-12-04T07:41:18.586Z,20.29
2022-12-04T07:43:45.488Z,20.31
2022-12-04T07:46:13.951Z,20.36
2022-12-04T07:48:41.239Z,20.41
2022-12-04T07:51:09.916Z,20.46
2022-12-04T07:53:37.409Z,20.51
2022-12-04T07:56:04.757Z,20.54
2022-12-04T07:58:31.777Z,20.60
2022-12-04T08:01:01.725Z,20.65
2022-12-04T08:03:28.608Z,20.69
2022-12-04T08:05:55.442Z,20.74
2022-12-04T08:08:22.258Z,20.79
2022-12-04T08:10:49.360Z,20.83
2022-12-04T08:13:16.206Z,20.88
2022-12-04T08:15:42.974Z,20.94
2022-12-04T08:18:09.750Z,20.97
2022-12-04T08:20:36.535Z,21.02
2022-12-04T08:23:03.419Z,21.05
2022-12-04T08:25:30.309Z,21.08
2022-12-04T08:27:57.117Z,21.11
2022-12-04T08:30:23.897Z,21.14
2022-12-04T08:32:50.831Z,21.17
2022-12-04T08:35:17.643Z,21.20
2022-12-04T08:37:44.529Z,21.22
2022-12-04T08:40:12.157Z,21.26
2022-12-04T08:42:39.041Z,21.27
2022-12-04T08:45:06.308Z,21.32
2022-12-04T08:47:33.267Z,21.33
2022-12-04T08:50:00.154Z,21.35
2022-12-04T08:52:26.940Z,21.38
2022-12-04T08:54:53.729Z,21.39
2022-12-04T08:57:20.465Z,21.41
2022-12-04T08:59:47.239Z,21.42
2022-12-04T09:02:14.000Z,21.44
2022-12-04T09:04:45.757Z,21.44
2022-12-04T09:07:12.714Z,21.44
2022-12-04T09:09:42.345Z,21.45
2022-12-04T09:12:13.485Z,21.46
2022-12-04T09:14:40.250Z,21.47
2022-12-04T09:17:07.268Z,21.48
2022-12-04T09:19:35.647Z,21.47
2022-12-04T09:22:02.324Z,21.44
2022-12-04T09:24:30.279Z,21.41
2022-12-04T09:26:57.200Z,21.41
2022-12-04T09:29:24.069Z,21.39
2022-12-04T09:31:50.870Z,21.33
2022-12-04T09:34:17.631Z,21.29
2022-12-04T09:36:44.424Z,21.24
2022-12-04T09:39:11.210Z,21.20
2022-12-04T09:41:38.360Z,21.18
2022-12-04T09:44:14.564Z,21.19
2022-12-04T09:46:51.365Z,21.14
2022-12-04T09:49:21.749Z,21.10
2022-12-04T09:51:50.221Z,21.07
2022-12-04T09:54:19.045Z,21.07
2022-12-04T09:56:52.024Z,20.96
2022-12-04T09:59:22.879Z,20.84
2022-12-04T10:01:51.702Z,20.72
2022-12-04T10:04:19.394Z,20.63
2022-12-04T10:06:47.466Z,20.68
2022-12-04T10:09:21.629Z,20.72
2022-12-04T10:11:53.471Z,20.78
2022-12-04T10:14:29.785Z,20.79
2022-12-04T10:16:56.845Z,20.85
2022-12-04T10:19:23.899Z,20.88
2022-12-04T10:21:51.865Z,20.90
2022-12-04T10:24:21.884Z,20.94
2022-12-04T10:26:49.507Z,20.94
2022-12-04T10:29:26.514Z,20.95
2022-12-04T10:31:55.465Z,20.94
2022-12-04T10:34:26.224Z,20.95
2022-12-04T10:36:53.981Z,20.97
2022-12-04T10:39:33.540Z,20.96
2022-12-04T10:42:04.936Z,21.00
2022-12-04T10:44:31.954Z,21.02
2022-12-04T10:46:59.913Z,21.05
2022-12-04T10:49:28.604Z,21.07
2022-12-04T10:51:55.483Z,21.07
2022-12-04T10:54:22.545Z,21.10
2022-12-04T10:56:51.276Z,21.11
2022-12-04T10:59:18.279Z,21.13
2022-12-04T11:01:45.562Z,21.16
2022-12-04T11:04:21.609Z,21.17
2022-12-04T11:06:50.299Z,21.20
2022-12-04T11:09:22.787Z,21.21
2022-12-04T11:11:49.984Z,21.24
2022-12-04T11:14:18.334Z,21.27
2022-12-04T11:16:48.557Z,21.30
2022-12-04T11:19:22.866Z,21.32
2022-12-04T11:21:50.467Z,21.35
2022-12-04T11:24:21.635Z,21.36
2022-12-04T11:26:48.994Z,21.39
2022-12-04T11:29:18.113Z,21.41
2022-12-04T11:31:53.262Z,21.44
2022-12-04T11:34:21.829Z,21.47
2022-12-04T11:36:54.025Z,21.46
2022-12-04T11:39:25.212Z,21.48
2022-12-04T11:42:01.633Z,21.47
2022-12-04T11:44:31.864Z,21.46
2022-12-04T11:46:59.689Z,21.47
2022-12-04T11:49:27.969Z,21.47
2022-12-04T11:52:02.334Z,21.48
2022-12-04T11:54:38.640Z,21.49
2022-12-04T11:57:13.500Z,21.52
2022-12-04T11:59:48.964Z,21.53
2022-12-04T12:02:26.659Z,21.56
2022-12-04T12:05:02.665Z,21.55
2022-12-04T12:07:38.347Z,21.58
2022-12-04T12:10:05.745Z,21.60
2022-12-04T12:12:41.644Z,21.62
2022-12-04T12:15:16.919Z,21.62
2022-12-04T12:17:47.259Z,21.63
2022-12-04T12:20:16.987Z,21.67
2022-12-04T12:22:53.626Z,21.69
2022-12-04T12:25:20.724Z,21.71
2022-12-04T12:27:49.144Z,21.70
2022-12-04T12:30:16.164Z,21.69
2022-12-04T12:32:43.270Z,21.70
2022-12-04T12:35:22.683Z,21.72
2022-12-04T12:37:53.005Z,21.72
2022-12-04T12:40:26.405Z,21.73
2022-12-04T12:42:58.591Z,21.75
2022-12-04T12:45:27.202Z,21.77
2022-12-04T12:47:56.339Z,21.78
2022-12-04T12:50:29.751Z,21.80
2022-12-04T12:53:03.206Z,21.82
2022-12-04T12:55:33.756Z,21.84
2022-12-04T12:58:06.825Z,21.85
2022-12-04T13:00:39.464Z,21.89
2022-12-04T13:03:16.746Z,21.88
2022-12-04T13:05:46.511Z,21.90
2022-12-04T13:08:20.742Z,21.94
2022-12-04T13:10:49.214Z,21.95
2022-12-04T13:13:26.400Z,21.95
2022-12-04T13:15:56.512Z,21.99
2022-12-04T13:18:27.976Z,21.98
2022-12-04T13:20:57.103Z,21.95
2022-12-04T13:23:33.784Z,21.93
2022-12-04T13:26:10.786Z,21.92
2022-12-04T13:28:47.105Z,21.92
2022-12-04T13:31:20.605Z,21.90
2022-12-04T13:33:50.930Z,21.89
2022-12-04T13:36:26.245Z,21.88
2022-12-04T13:39:02.665Z,21.88
2022-12-04T13:41:31.484Z,21.88
2022-12-04T13:44:02.928Z,21.89
2022-12-04T13:46:36.790Z,21.92
2022-12-04T13:49:13.969Z,21.94
2022-12-04T13:51:41.957Z,21.95
2022-12-04T13:54:12.029Z,21.96
2022-12-04T13:56:41.089Z,21.96
2022-12-04T13:59:17.805Z,21.96
2022-12-04T14:01:46.997Z,21.98
2022-12-04T14:04:23.644Z,21.99
2022-12-04T14:06:51.490Z,22.00
2022-12-04T14:09:27.624Z,22.00
2022-12-04T14:11:58.042Z,22.00
2022-12-04T14:14:27.145Z,22.00
2022-12-04T14:16:55.141Z,22.00
2022-12-04T14:19:28.201Z,22.00
2022-12-04T14:21:55.450Z,22.01
2022-12-04T14:24:32.245Z,22.02
2022-12-04T14:27:15.085Z,22.02
2022-12-04T14:29:45.224Z,22.00
2022-12-04T14:32:15.905Z,21.98
2022-12-04T14:34:43.405Z,21.97
2022-12-04T14:37:19.015Z,21.96
2022-12-04T14:39:47.551Z,21.97
2022-12-04T14:42:15.669Z,21.97
2022-12-04T14:44:44.544Z,21.98
2022-12-04T14:47:20.585Z,22.00
2022-12-04T14:49:57.153Z,22.03
2022-12-04T14:52:28.685Z,22.03
2022-12-04T14:55:07.176Z,22.05
2022-12-04T14:57:43.465Z,22.06
2022-12-04T15:00:16.445Z,22.07
2022-12-04T15:02:44.204Z,22.09
2022-12-04T15:05:13.152Z,22.11
2022-12-04T15:07:46.690Z,22.11
2022-12-04T15:10:29.033Z,22.12
2022-12-04T15:12:55.950Z,22.11
2022-12-04T15:15:25.851Z,22.12
2022-12-04T15:18:02.785Z,22.14
2022-12-04T15:20:38.635Z,22.11
2022-12-04T15:23:06.369Z,22.26
2022-12-04T15:25:35.926Z,22.35
2022-12-04T15:28:06.401Z,22.37
2022-12-04T15:30:35.015Z,22.40
2022-12-04T15:33:02.212Z,22.41
2022-12-04T15:35:30.829Z,22.41
2022-12-04T15:37:58.467Z,22.41
2022-12-04T15:40:26.926Z,22.39
2022-12-04T15:42:54.014Z,22.40
2022-12-04T15:45:21.123Z,22.40
2022-12-04T15:47:48.498Z,22.39
2022-12-04T15:50:15.653Z,22.39
2022-12-04T15:52:50.818Z,22.38
2022-12-04T15:55:18.878Z,22.37
2022-12-04T15:57:51.795Z,22.35
2022-12-04T16:00:22.964Z,22.35
2022-12-04T16:02:50.377Z,22.33
2022-12-04T16:05:28.752Z,22.30
2022-12-04T16:07:57.053Z,22.30
2022-12-04T16:10:25.744Z,22.28
2022-12-04T16:12:54.139Z,22.26
2022-12-04T16:15:21.063Z,22.25
2022-12-04T16:17:48.203Z,22.24
2022-12-04T16:20:15.525Z,22.21
2022-12-04T16:22:42.836Z,22.21
2022-12-04T16:25:11.445Z,22.17
2022-12-04T16:27:38.859Z,22.14
2022-12-04T16:30:06.495Z,22.13
2022-12-04T16:32:34.712Z,22.13
2022-12-04T16:35:02.260Z,22.10
2022-12-04T16:37:32.206Z,22.08
2022-12-04T16:39:59.880Z,22.06
2022-12-04T16:42:28.632Z,22.05
2022-12-04T16:44:56.537Z,22.02
2022-12-04T16:47:24.387Z,22.00
2022-12-04T16:49:52.182Z,21.98
2022-12-04T16:52:20.052Z,21.97
2022-12-04T16:54:47.598Z,21.94
2022-12-04T16:57:14.994Z,21.92
2022-12-04T16:59:42.946Z,21.90
2022-12-04T17:02:16.115Z,21.87
2022-12-04T17:04:43.583Z,21.85
2022-12-04T17:07:10.560Z,21.85
2022-12-04T17:09:37.908Z,21.82
2022-12-04T17:12:04.902Z,21.80
2022-12-04T17:14:32.468Z,21.78
2022-12-04T17:16:59.686Z,21.76
2022-12-04T17:19:26.954Z,21.72
2022-12-04T17:21:54.391Z,21.69
2022-12-04T17:24:21.485Z,21.67
2022-12-04T17:26:48.422Z,21.63
2022-12-04T17:29:15.488Z,21.62
2022-12-04T17:31:42.777Z,21.60
2022-12-04T17:34:09.963Z,21.58
2022-12-04T17:36:37.174Z,21.56
2022-12-04T17:39:04.246Z,21.54
2022-12-04T17:41:31.620Z,21.49
2022-12-04T17:44:00.061Z,21.45
2022-12-04T17:46:27.707Z,21.40
2022-12-04T17:48:56.779Z,21.37
2022-12-04T17:51:24.719Z,21.34
2022-12-04T17:53:52.034Z,21.30
2022-12-04T17:56:20.786Z,21.26
2022-12-04T17:58:48.530Z,21.23
2022-12-04T18:01:17.835Z,21.18
2022-12-04T18:03:49.501Z,21.16
2022-12-04T18:06:17.989Z,21.15
2022-12-04T18:08:50.062Z,21.13
2022-12-04T18:11:19.021Z,21.12
2022-12-04T18:13:46.140Z,21.06
2022-12-04T18:16:13.368Z,21.03
2022-12-04T18:18:40.739Z,20.99
2022-12-04T18:21:09.996Z,20.98
2022-12-04T18:23:37.985Z,20.94
2022-12-04T18:26:05.592Z,20.91
2022-12-04T18:28:32.920Z,20.89
2022-12-04T18:31:02.626Z,20.85
2022-12-04T18:33:31.610Z,20.76
2022-12-04T18:35:58.703Z,20.71
2022-12-04T18:38:26.440Z,20.67
2022-12-04T18:40:54.784Z,20.66
2022-12-04T18:43:22.234Z,20.62
2022-12-04T18:45:59.404Z,20.60
2022-12-04T18:48:28.689Z,20.56
2022-12-04T18:50:55.621Z,20.53
2022-12-04T18:53:23.125Z,20.53
2022-12-04T18:55:50.155Z,20.50
2022-12-04T18:58:17.211Z,20.50
2022-12-04T19:00:45.684Z,20.49
2022-12-04T19:03:12.741Z,20.50
2022-12-04T19:05:47.504Z,20.53
2022-12-04T19:08:14.569Z,20.56
2022-12-04T19:10:41.743Z,20.65
2022-12-04T19:13:08.722Z,20.66
2022-12-04T19:15:37.612Z,20.70
2022-12-04T19:18:04.862Z,20.74
2022-12-04T19:20:32.811Z,20.77
2022-12-04T19:22:59.868Z,20.79
2022-12-04T19:25:26.922Z,20.83
2022-12-04T19:27:54.003Z,20.85
2022-12-04T19:30:21.224Z,20.88
2022-12-04T19:32:50.463Z,20.91
2022-12-04T19:35:17.602Z,20.96
2022-12-04T19:37:49.609Z,20.99
2022-12-04T19:40:19.617Z,21.03
2022-12-04T19:42:46.740Z,21.06
2022-12-04T19:45:13.782Z,21.09
2022-12-04T19:47:40.871Z,21.12
2022-12-04T19:50:08.153Z,21.16
2022-12-04T19:52:37.922Z,21.19
2022-12-04T19:55:05.320Z,21.23
2022-12-04T19:57:32.381Z,21.26
2022-12-04T19:59:59.435Z,21.29
2022-12-04T20:02:26.872Z,21.34
2022-12-04T20:04:53.934Z,21.37
2022-12-04T20:07:20.583Z,21.39
2022-12-04T20:09:51.922Z,21.42
2022-12-04T20:12:19.581Z,21.45
2022-12-04T20:14:46.529Z,21.48
2022-12-04T20:17:13.684Z,21.50
2022-12-04T20:19:41.091Z,21.53
2022-12-04T20:22:08.246Z,21.54
2022-12-04T20:24:35.281Z,21.56
2022-12-04T20:27:03.764Z,21.59
2022-12-04T20:29:30.810Z,21.63
2022-12-04T20:31:58.190Z,21.65
2022-12-04T20:34:25.342Z,21.68
2022-12-04T20:36:52.702Z,21.70
2022-12-04T20:39:20.103Z,21.73
2022-12-04T20:41:47.991Z,21.76
2022-12-04T20:44:16.277Z,21.80
2022-12-04T20:46:43.519Z,21.80
2022-12-04T20:49:15.820Z,21.88
2022-12-04T20:51:48.400Z,21.93
2022-12-04T20:54:18.759Z,21.93
2022-12-04T20:56:46.521Z,21.91
2022-12-04T20:59:14.867Z,21.92
2022-12-04T21:01:42.078Z,21.95
2022-12-04T21:04:09.572Z,21.96
2022-12-04T21:06:38.483Z,21.98
2022-12-04T21:09:06.798Z,21.98
2022-12-04T21:11:38.282Z,21.98
2022-12-04T21:14:16.569Z,21.99
2022-12-04T21:16:44.193Z,22.00
2022-12-04T21:19:13.180Z,22.03
2022-12-04T21:21:40.633Z,22.05
2022-12-04T21:24:08.395Z,22.07
2022-12-04T21:26:35.502Z,22.09
2022-12-04T21:29:05.840Z,22.11
2022-12-04T21:31:32.943Z,22.15
2022-12-04T21:34:01.091Z,22.17
2022-12-04T21:36:28.401Z,22.19
2022-12-04T21:38:55.742Z,22.18
2022-12-04T21:41:32.881Z,22.22
2022-12-04T21:44:01.801Z,22.23
2022-12-04T21:46:28.845Z,22.23
2022-12-04T21:48:55.753Z,22.25
2022-12-04T21:51:48.665Z,22.26
2022-12-04T21:54:09.709Z,22.24
2022-12-04T21:56:38.939Z,22.21
2022-12-04T21:59:06.632Z,22.18
2022-12-04T22:01:34.327Z,22.15
2022-12-04T22:04:01.620Z,22.17
2022-12-04T22:06:29.360Z,22.18
2022-12-04T22:08:56.370Z,22.20
2022-12-04T22:11:23.338Z,22.20
2022-12-04T22:13:50.559Z,22.22
2022-12-04T22:16:18.374Z,22.25
2022-12-04T22:18:46.140Z,22.26
2022-12-04T22:21:14.914Z,22.29
2022-12-04T22:23:42.659Z,22.30
2022-12-04T22:26:12.074Z,22.32
2022-12-04T22:28:39.420Z,22.34
2022-12-04T22:31:07.953Z,22.36
2022-12-04T22:33:35.531Z,22.37
2022-12-04T22:36:04.223Z,22.37
2022-12-04T22:38:31.282Z,22.39
2022-12-04T22:40:59.010Z,22.42
2022-12-04T22:43:26.169Z,22.45
2022-12-04T22:45:53.231Z,22.48
2022-12-04T22:48:20.291Z,22.48
2022-12-04T22:50:55.180Z,22.46
2022-12-04T22:53:22.110Z,22.46
2022-12-04T22:55:49.019Z,22.43
2022-12-04T22:58:15.970Z,22.41
2022-12-04T23:00:42.868Z,22.41
2022-12-04T23:03:09.824Z,22.39
2022-12-04T23:05:36.852Z,22.35
2022-12-04T23:08:04.300Z,22.36
2022-12-04T23:10:32.193Z,22.34
2022-12-04T23:12:59.190Z,22.33
2022-12-04T23:15:26.160Z,22.33
2022-12-04T23:17:53.190Z,22.34
2022-12-04T23:20:20.240Z,22.34
2022-12-04T23:22:48.491Z,22.37
2022-12-04T23:25:15.578Z,22.37
2022-12-04T23:27:42.519Z,22.38
2022-12-04T23:30:09.996Z,22.39
2022-12-04T23:32:37.091Z,22.37
2022-12-04T23:35:04.442Z,22.37
2022-12-04T23:37:33.300Z,22.38
2022-12-04T23:40:00.575Z,22.38
2022-12-04T23:42:31.310Z,22.38
2022-12-04T23:44:58.319Z,22.37
2022-12-04T23:47:25.341Z,22.36
2022-12-04T23:49:52.310Z,22.34
2022-12-04T23:52:19.274Z,22.35
2022-12-04T23:54:46.948Z,22.32
2022-12-04T23:57:13.980Z,22.30
2022-12-04T23:59:41.030Z,22.30
